Time;durP1;ratioP1;P1;durP2;ratioP2;P2;SDS_P1;SDS_P2;PMS_P1;PMS_P2;Temp;Humidity;BMP_temperature;BMP_pressure;BME280_temperature;BME280_humidity;BME280_pressure;Samples;Min_cycle;Max_cycle;Signal;HPM_P1;HPM_P2
2021/08/12 00:02:01;;;;;;;30.52;19.45;;;15.30;99.90;;;;;;5088819;28;20043;-85
2021/08/12 00:04:27;;;;;;;27.60;16.90;;;15.20;99.90;;;;;;5091448;28;20047;-83
2021/08/12 00:06:53;;;;;;;33.05;19.48;;;15.20;99.90;;;;;;5091424;28;20426;-82
2021/08/12 00:09:19;;;;;;;79.18;26.45;;;15.10;99.90;;;;;;5072687;28;20119;-83
2021/08/12 00:11:44;;;;;;;176.85;26.67;;;15.10;99.90;;;;;;5073388;28;20479;-83
2021/08/12 00:14:10;;;;;;;33.45;20.67;;;15.00;99.90;;;;;;5048205;28;20051;-83
2021/08/12 00:16:36;;;;;;;46.50;25.85;;;15.00;99.90;;;;;;5073520;28;20114;-82
2021/08/12 00:19:02;;;;;;;32.83;20.23;;;14.90;99.90;;;;;;5090275;28;20048;-86
2021/08/12 00:21:28;;;;;;;47.80;22.05;;;14.90;99.90;;;;;;5091066;28;20391;-82
2021/08/12 00:23:56;;;;;;;45.45;25.02;;;14.90;99.90;;;;;;5073218;28;20067;-82
2021/08/12 00:26:22;;;;;;;35.35;20.23;;;14.80;99.90;;;;;;5090337;28;20052;-82
2021/08/12 00:28:48;;;;;;;37.45;21.02;;;14.80;99.90;;;;;;5089736;28;20162;-82
2021/08/12 00:31:14;;;;;;;62.33;30.38;;;14.80;99.90;;;;;;5090087;28;20384;-82
2021/08/12 00:33:40;;;;;;;45.75;24.00;;;14.80;99.90;;;;;;5072297;28;20089;-82
2021/08/12 00:36:06;;;;;;;44.78;25.17;;;14.80;99.90;;;;;;5087829;28;20101;-83
2021/08/12 00:38:32;;;;;;;42.97;23.83;;;14.80;99.90;;;;;;5073085;28;20039;-82
2021/08/12 00:40:58;;;;;;;48.83;26.38;;;14.80;99.90;;;;;;5053441;28;20492;-82
2021/08/12 00:43:24;;;;;;;49.63;29.13;;;14.70;99.90;;;;;;5052816;28;20036;-83
2021/08/12 00:45:49;;;;;;;63.60;32.35;;;14.80;99.90;;;;;;5091130;28;20075;-83
2021/08/12 00:48:15;;;;;;;84.43;42.67;;;14.70;99.90;;;;;;5071994;28;20460;-86
2021/08/12 00:50:42;;;;;;;70.53;34.88;;;14.80;99.90;;;;;;5059482;28;20403;-83
2021/08/12 00:53:09;;;;;;;74.28;35.67;;;14.80;99.90;;;;;;5072574;28;20068;-84
2021/08/12 00:55:42;;;;;;;61.33;33.15;;;14.80;99.90;;;;;;5055959;28;20048;-83
2021/08/12 00:58:09;;;;;;;59.42;32.60;;;14.70;99.90;;;;;;5072061;28;20062;-83
2021/08/12 01:00:36;;;;;;;64.35;34.83;;;14.80;99.90;;;;;;5056797;28;20043;-83
2021/08/12 01:03:08;;;;;;;34.85;21.02;;;14.80;99.90;;;;;;5072927;28;20046;-88
2021/08/12 01:05:34;;;;;;;32.30;21.05;;;14.70;99.90;;;;;;5073802;28;20065;-83
2021/08/12 01:08:21;;;;;;;42.25;26.88;;;14.70;99.90;;;;;;5090822;28;20063;-82
2021/08/12 01:11:07;;;;;;;42.38;26.25;;;14.70;99.90;;;;;;5090749;28;20110;-83
2021/08/12 01:14:00;;;;;;;39.58;23.75;;;14.70;99.90;;;;;;5091137;28;20044;-82
2021/08/12 01:16:29;;;;;;;38.08;23.92;;;14.60;99.90;;;;;;5086483;28;20528;-83
2021/08/12 01:19:01;;;;;;;31.67;20.52;;;14.60;99.90;;;;;;5072848;28;20036;-83
2021/08/12 01:21:54;;;;;;;29.45;20.20;;;14.60;99.90;;;;;;5089628;28;20062;-82
2021/08/12 01:24:21;;;;;;;29.75;21.95;;;14.50;99.90;;;;;;5090199;28;20048;-82
2021/08/12 01:26:53;;;;;;;25.00;18.20;;;14.50;99.90;;;;;;5056455;28;20844;-85
2021/08/12 01:29:40;;;;;;;20.95;16.38;;;14.50;99.90;;;;;;5089641;28;20127;-83
2021/08/12 01:32:10;;;;;;;22.02;16.33;;;14.50;99.90;;;;;;5090209;28;20036;-88
2021/08/12 01:34:42;;;;;;;31.48;22.48;;;14.40;99.90;;;;;;5072368;28;20095;-83
2021/08/12 01:37:12;;;;;;;22.77;17.92;;;14.40;99.90;;;;;;5090076;28;20680;-87
2021/08/12 01:39:38;;;;;;;;;;;14.40;99.90;;;;;;5071913;28;20028;-82
2021/08/12 01:42:05;;;;;;;20.33;15.73;;;14.40;99.90;;;;;;5090205;28;19927;-83
2021/08/12 01:44:32;;;;;;;14.70;11.93;;;14.40;99.90;;;;;;5089051;28;20475;-83
2021/08/12 01:46:59;;;;;;;21.92;15.32;;;14.40;99.90;;;;;;5071824;28;20044;-82
2021/08/12 01:49:26;;;;;;;20.63;14.52;;;14.30;99.90;;;;;;5054281;28;20040;-82
2021/08/12 01:51:52;;;;;;;16.33;12.63;;;14.30;99.90;;;;;;5089271;28;20101;-82
2021/08/12 01:54:21;;;;;;;18.55;13.45;;;14.30;99.90;;;;;;5089533;28;20048;-84
2021/08/12 01:56:48;;;;;;;21.50;16.10;;;14.30;99.90;;;;;;5089468;28;20188;-83
2021/08/12 01:59:16;;;;;;;34.25;18.60;;;14.30;99.90;;;;;;5071403;28;20063;-82
2021/08/12 02:01:46;;;;;;;22.67;13.80;;;14.30;99.90;;;;;;5071922;28;20050;-82
2021/08/12 02:04:13;;;;;;;22.83;12.75;;;14.20;99.90;;;;;;5089133;28;20476;-84
2021/08/12 02:06:39;;;;;;;35.72;13.45;;;14.20;99.90;;;;;;5071753;28;20048;-83
2021/08/12 02:09:05;;;;;;;15.45;12.50;;;14.20;99.90;;;;;;5089739;28;20032;-85
2021/08/12 02:11:34;;;;;;;17.67;13.05;;;14.20;99.90;;;;;;5088560;28;20580;-82
2021/08/12 02:14:00;;;;;;;17.10;11.68;;;14.30;99.90;;;;;;5043332;28;20051;-83
2021/08/12 02:16:27;;;;;;;18.05;13.40;;;14.30;99.90;;;;;;5089097;28;20032;-82
2021/08/12 02:18:53;;;;;;;15.70;12.45;;;14.20;99.90;;;;;;5055206;28;20072;-82
2021/08/12 02:21:26;;;;;;;19.00;12.95;;;14.20;99.90;;;;;;5070624;28;20531;-85
2021/08/12 02:24:00;;;;;;;15.98;12.52;;;14.10;99.90;;;;;;5071142;28;20039;-82
2021/08/12 02:26:31;;;;;;;16.80;12.82;;;14.20;99.90;;;;;;5054124;28;20048;-82
2021/08/12 02:28:59;;;;;;;17.73;14.15;;;14.20;99.90;;;;;;5089670;28;20048;-82
2021/08/12 02:31:27;;;;;;;25.77;16.13;;;14.20;99.90;;;;;;5088457;28;20032;-82
2021/08/12 02:33:54;;;;;;;23.40;17.92;;;14.10;99.90;;;;;;5071044;28;20119;-81
2021/08/12 02:36:20;;;;;;;20.58;16.27;;;14.10;99.90;;;;;;5070388;28;20074;-82
2021/08/12 02:38:48;;;;;;;27.55;15.63;;;14.00;99.90;;;;;;5084273;28;20539;-83
2021/08/12 02:41:19;;;;;;;20.98;17.23;;;14.00;99.90;;;;;;5070027;28;20048;-87
2021/08/12 02:43:46;;;;;;;22.92;13.90;;;14.00;99.90;;;;;;5071448;28;20117;-82
2021/08/12 02:46:16;;;;;;;22.85;17.77;;;13.90;99.90;;;;;;5054890;28;20055;-88
2021/08/12 02:48:42;;;;;;;;;;;13.90;99.90;;;;;;5071716;28;20132;-82
2021/08/12 02:51:11;;;;;;;29.45;18.73;;;13.90;99.90;;;;;;5088518;28;19920;-82
2021/08/12 02:53:37;;;;;;;31.00;21.23;;;13.90;99.90;;;;;;5053390;28;20044;-82
2021/08/12 02:56:06;;;;;;;36.42;18.27;;;13.90;99.90;;;;;;5070645;28;20381;-83
2021/08/12 02:58:35;;;;;;;18.45;15.00;;;13.90;99.90;;;;;;5088136;28;20193;-82
2021/08/12 03:01:04;;;;;;;25.42;18.75;;;13.90;99.90;;;;;;5089889;28;20112;-82
2021/08/12 03:03:32;;;;;;;23.27;16.38;;;13.80;99.90;;;;;;5088040;28;20137;-82
2021/08/12 03:06:00;;;;;;;20.20;13.98;;;13.80;99.90;;;;;;5071285;28;20055;-85
2021/08/12 03:08:29;;;;;;;25.35;18.88;;;13.80;99.90;;;;;;5070220;28;20067;-82
2021/08/12 03:10:56;;;;;;;28.10;20.97;;;13.90;99.90;;;;;;5071175;28;20072;-83
2021/08/12 03:13:22;;;;;;;29.92;20.70;;;13.80;99.90;;;;;;5088614;28;20074;-82
2021/08/12 03:15:49;;;;;;;30.77;21.05;;;13.80;99.90;;;;;;5089400;28;20055;-82
2021/08/12 03:18:15;;;;;;;21.90;16.90;;;13.80;99.90;;;;;;5071365;28;20085;-87
2021/08/12 03:20:42;;;;;;;23.77;17.08;;;13.70;99.90;;;;;;5057500;28;20040;-82
2021/08/12 03:23:09;;;;;;;29.75;19.13;;;13.70;99.90;;;;;;5060991;28;20446;-82
2021/08/12 03:25:35;;;;;;;25.65;16.55;;;13.70;99.90;;;;;;5074447;28;20713;-82
2021/08/12 03:28:00;;;;;;;16.40;14.27;;;13.70;99.90;;;;;;5074912;28;20123;-82
2021/08/12 03:30:26;;;;;;;31.45;20.48;;;13.70;99.90;;;;;;5092736;28;20764;-82
2021/08/12 03:32:52;;;;;;;16.63;13.45;;;13.70;99.90;;;;;;5092252;28;20043;-84
2021/08/12 03:35:19;;;;;;;20.67;16.88;;;13.60;99.90;;;;;;5090624;28;20548;-85
2021/08/12 03:37:45;;;;;;;24.10;16.70;;;13.60;99.90;;;;;;5091775;28;20119;-83
2021/08/12 03:40:12;;;;;;;19.15;13.93;;;13.60;99.90;;;;;;5054578;28;20055;-85
2021/08/12 03:42:38;;;;;;;24.70;18.25;;;13.70;99.90;;;;;;5084519;28;20036;-83
2021/08/12 03:45:05;;;;;;;33.20;22.33;;;13.60;99.90;;;;;;5074740;28;20046;-84
2021/08/12 03:47:31;;;;;;;27.58;21.23;;;13.70;99.90;;;;;;5073525;28;20036;-82
2021/08/12 03:49:57;;;;;;;24.63;18.63;;;13.70;99.90;;;;;;5092641;28;20689;-83
2021/08/12 03:52:23;;;;;;;34.03;20.05;;;13.70;99.90;;;;;;5074002;28;20183;-85
2021/08/12 03:54:49;;;;;;;23.20;16.85;;;13.60;99.90;;;;;;5058062;28;20055;-83
2021/08/12 03:57:14;;;;;;;27.92;20.30;;;13.60;99.90;;;;;;5074081;28;20056;-83
2021/08/12 03:59:41;;;;;;;37.13;24.63;;;13.60;99.90;;;;;;5073854;28;20087;-83
2021/08/12 04:02:07;;;;;;;40.55;22.65;;;13.60;99.90;;;;;;5091761;28;20472;-83
2021/08/12 04:04:34;;;;;;;36.00;24.60;;;13.60;99.90;;;;;;5091653;28;20127;-82
2021/08/12 04:06:59;;;;;;;27.35;21.30;;;13.60;99.90;;;;;;5074258;28;20071;-83
2021/08/12 04:09:25;;;;;;;31.73;22.42;;;13.50;99.90;;;;;;5091849;28;20063;-83
2021/08/12 04:11:51;;;;;;;31.98;22.63;;;13.50;99.90;;;;;;5074083;28;20589;-84
2021/08/12 04:14:17;;;;;;;42.20;23.63;;;13.50;99.90;;;;;;5057604;28;20123;-83
2021/08/12 04:16:44;;;;;;;40.78;26.55;;;13.50;99.90;;;;;;5091585;28;20036;-82
2021/08/12 04:19:12;;;;;;;42.90;27.67;;;13.50;99.90;;;;;;5091700;28;20093;-83
2021/08/12 04:21:38;;;;;;;33.08;22.58;;;13.50;99.90;;;;;;5090878;28;20040;-82
2021/08/12 04:24:05;;;;;;;31.85;22.67;;;13.50;99.90;;;;;;5091769;28;20483;-82
2021/08/12 04:26:31;;;;;;;34.03;22.15;;;13.50;99.90;;;;;;5058880;28;20079;-82
2021/08/12 04:28:57;;;;;;;43.08;26.00;;;13.50;99.90;;;;;;5057069;28;20119;-81
2021/08/12 04:31:24;;;;;;;32.42;23.20;;;13.50;99.90;;;;;;5089541;28;20074;-87
2021/08/12 04:33:50;;;;;;;27.35;20.65;;;13.50;99.90;;;;;;5091591;28;20078;-82
2021/08/12 04:36:17;;;;;;;45.47;27.33;;;13.60;99.90;;;;;;5091533;28;20108;-82
2021/08/12 04:38:43;;;;;;;39.03;28.75;;;13.60;99.90;;;;;;5090590;28;20109;-82
2021/08/12 04:41:09;;;;;;;34.83;23.05;;;13.60;99.90;;;;;;5091165;28;20044;-82
2021/08/12 04:43:35;;;;;;;46.10;28.58;;;13.70;99.90;;;;;;5072544;28;20040;-82
2021/08/12 04:46:02;;;;;;;46.97;30.70;;;13.70;99.90;;;;;;5073483;28;20040;-83
2021/08/12 04:48:28;;;;;;;39.50;26.00;;;13.80;99.90;;;;;;5089720;28;20036;-83
2021/08/12 04:50:54;;;;;;;46.15;28.65;;;13.80;99.90;;;;;;5056461;28;20095;-83
2021/08/12 04:53:20;;;;;;;50.08;29.63;;;13.80;99.90;;;;;;5090823;28;20044;-82
2021/08/12 04:55:45;;;;;;;39.72;28.15;;;13.90;99.90;;;;;;5055615;28;20472;-86
2021/08/12 04:58:11;;;;;;;39.05;26.60;;;13.90;99.90;;;;;;5072012;28;21020;-83
2021/08/12 05:00:37;;;;;;;30.30;23.80;;;14.00;99.90;;;;;;5055716;28;20048;-83
2021/08/12 05:03:03;;;;;;;35.65;26.05;;;14.00;99.90;;;;;;5073198;28;20136;-85
2021/08/12 05:05:29;;;;;;;40.45;26.63;;;14.00;99.90;;;;;;5071891;28;20057;-83
2021/08/12 05:07:55;;;;;;;42.00;28.42;;;14.10;99.90;;;;;;5072733;28;20109;-85
2021/08/12 05:10:21;;;;;;;35.83;25.10;;;14.10;99.90;;;;;;5090664;28;20036;-83
2021/08/12 05:12:51;;;;;;;40.50;27.73;;;14.10;99.90;;;;;;5056543;28;20043;-83
2021/08/12 05:15:17;;;;;;;40.47;27.25;;;14.10;99.90;;;;;;5090952;28;20430;-84
2021/08/12 05:17:43;;;;;;;44.35;28.33;;;14.10;99.90;;;;;;5073014;28;20040;-85
2021/08/12 05:20:09;;;;;;;40.47;26.52;;;14.20;99.90;;;;;;5090732;28;20048;-83
2021/08/12 05:22:37;;;;;;;38.10;25.85;;;14.20;99.90;;;;;;5055579;28;20044;-83
2021/08/12 05:25:04;;;;;;;43.90;26.50;;;14.20;99.90;;;;;;5072811;28;20104;-83
2021/08/12 05:27:30;;;;;;;36.63;25.20;;;14.20;99.90;;;;;;5089757;28;20048;-88
2021/08/12 05:29:56;;;;;;;35.58;24.92;;;14.20;99.90;;;;;;5076922;28;20073;-84
2021/08/12 05:32:22;;;;;;;36.65;24.30;;;14.30;99.90;;;;;;5090871;28;20052;-83
2021/08/12 05:34:48;;;;;;;40.03;25.83;;;14.40;99.90;;;;;;5072372;28;20048;-83
2021/08/12 05:37:14;;;;;;;42.95;26.92;;;14.50;99.90;;;;;;5089896;28;20399;-83
2021/08/12 05:39:40;;;;;;;36.83;25.45;;;14.50;99.90;;;;;;5071338;28;20055;-84
2021/08/12 05:42:06;;;;;;;40.97;25.88;;;14.70;99.90;;;;;;5089761;28;20040;-85
2021/08/12 05:44:32;;;;;;;40.17;24.75;;;14.70;99.90;;;;;;5082949;28;20434;-89
2021/08/12 05:46:57;;;;;;;39.88;25.08;;;14.70;99.90;;;;;;5076710;28;20048;-83
2021/08/12 05:49:25;;;;;;;36.20;24.45;;;14.80;99.90;;;;;;5072143;28;20391;-84
2021/08/12 05:51:52;;;;;;;41.33;27.52;;;14.80;99.90;;;;;;5055166;28;20036;-83
2021/08/12 05:54:18;;;;;;;40.72;26.50;;;14.90;99.90;;;;;;5072082;28;20040;-84
2021/08/12 05:56:44;;;;;;;41.08;26.23;;;14.90;99.90;;;;;;5068677;28;20456;-82
2021/08/12 05:59:09;;;;;;;39.60;25.13;;;14.90;99.90;;;;;;5060537;28;20131;-83
2021/08/12 06:01:35;;;;;;;34.35;23.50;;;14.90;99.90;;;;;;5054496;28;20459;-85
2021/08/12 06:04:01;;;;;;;50.50;26.10;;;14.90;99.90;;;;;;5071707;28;20130;-83
2021/08/12 06:06:31;;;;;;;35.47;25.23;;;14.90;99.90;;;;;;5072377;28;20071;-87
2021/08/12 06:08:56;;;;;;;45.80;26.30;;;14.90;99.90;;;;;;5088695;28;20115;-84
2021/08/12 06:11:22;;;;;;;29.60;20.65;;;14.80;99.90;;;;;;5071557;28;20833;-83
2021/08/12 06:13:48;;;;;;;37.17;25.45;;;14.80;99.90;;;;;;5053758;28;20040;-84
2021/08/12 06:16:14;;;;;;;39.50;25.63;;;14.90;99.90;;;;;;5089623;28;20036;-83
2021/08/12 06:18:40;;;;;;;34.97;23.33;;;15.00;99.90;;;;;;5070819;28;20079;-83
2021/08/12 06:21:06;;;;;;;45.33;21.70;;;15.10;99.90;;;;;;5089302;28;20475;-87
2021/08/12 06:23:34;;;;;;;36.45;20.23;;;15.20;99.90;;;;;;5088216;28;20052;-88
2021/08/12 06:26:01;;;;;;;25.27;18.23;;;15.30;99.90;;;;;;5070665;28;20391;-83
2021/08/12 06:28:29;;;;;;;22.40;17.35;;;15.40;99.90;;;;;;5071524;28;20044;-84
2021/08/12 06:30:55;;;;;;;34.28;19.60;;;15.50;99.90;;;;;;5088555;28;20125;-86
2021/08/12 06:33:20;;;;;;;29.70;18.92;;;15.60;99.90;;;;;;5089104;28;20047;-83
2021/08/12 06:35:46;;;;;;;34.67;17.73;;;15.70;99.90;;;;;;5070810;28;20537;-84
2021/08/12 06:38:13;;;;;;;22.52;17.85;;;15.80;99.90;;;;;;5070885;28;20039;-83
2021/08/12 06:40:39;;;;;;;22.85;16.20;;;15.80;99.90;;;;;;5054027;28;20526;-83
2021/08/12 06:43:05;;;;;;;45.40;18.17;;;15.80;99.90;;;;;;5071438;28;20048;-84
2021/08/12 06:45:31;;;;;;;25.27;19.38;;;16.00;99.90;;;;;;5071140;28;20646;-84
2021/08/12 06:47:57;;;;;;;23.02;16.02;;;16.00;99.90;;;;;;5087884;28;20097;-83
2021/08/12 06:50:23;;;;;;;27.65;18.00;;;16.10;99.90;;;;;;5089195;28;20067;-83
2021/08/12 06:52:49;;;;;;;32.38;17.33;;;16.20;99.90;;;;;;5087962;28;20119;-83
2021/08/12 06:55:15;;;;;;;21.38;17.40;;;16.30;99.90;;;;;;5091726;28;20040;-85
2021/08/12 06:57:41;;;;;;;24.13;17.70;;;16.40;99.90;;;;;;5092160;28;20063;-83
2021/08/12 07:00:08;;;;;;;27.27;18.10;;;16.60;99.90;;;;;;5093320;28;20044;-86
2021/08/12 07:02:44;;;;;;;26.92;18.42;;;16.70;99.90;;;;;;5085285;28;20039;-84
2021/08/12 07:05:10;;;;;;;23.80;17.73;;;16.80;99.90;;;;;;5093443;28;20040;-85
2021/08/12 07:07:44;;;;;;;23.95;18.85;;;16.90;99.90;;;;;;5092151;28;20174;-83
2021/08/12 07:10:11;;;;;;;22.40;16.23;;;17.00;99.90;;;;;;5074917;28;20048;-83
2021/08/12 07:12:38;;;;;;;22.27;16.52;;;17.00;99.90;;;;;;5074718;28;20071;-88
2021/08/12 07:15:07;;;;;;;22.55;15.85;;;17.20;99.90;;;;;;5090878;28;20540;-84
2021/08/12 07:17:36;;;;;;;21.20;17.50;;;17.20;99.90;;;;;;5075572;28;20495;-88
2021/08/12 07:20:03;;;;;;;26.13;16.70;;;17.30;99.90;;;;;;5092019;28;20052;-84
2021/08/12 07:22:29;;;;;;;25.05;16.42;;;17.40;99.90;;;;;;5074974;28;20063;-85
2021/08/12 07:24:55;;;;;;;37.13;17.73;;;17.50;99.90;;;;;;5074256;28;20075;-84
2021/08/12 07:27:20;;;;;;;28.00;17.40;;;17.60;99.90;;;;;;5074831;28;20066;-84
2021/08/12 07:29:46;;;;;;;24.20;16.73;;;17.70;99.90;;;;;;5091983;28;20303;-83
2021/08/12 07:32:12;;;;;;;24.88;17.40;;;17.80;99.90;;;;;;5042181;28;20048;-85
2021/08/12 07:34:38;;;;;;;22.33;17.80;;;17.90;99.90;;;;;;5075364;28;20492;-87
2021/08/12 07:37:05;;;;;;;34.25;18.00;;;18.10;99.90;;;;;;5094077;28;20126;-84
2021/08/12 07:39:31;;;;;;;23.63;15.52;;;18.10;99.90;;;;;;5077149;28;20050;-85
2021/08/12 07:41:57;;;;;;;33.47;16.85;;;18.20;99.90;;;;;;5076663;28;20040;-85
2021/08/12 07:44:23;;;;;;;24.58;17.25;;;18.30;99.90;;;;;;5094692;28;20046;-86
2021/08/12 07:46:49;;;;;;;20.92;14.07;;;18.40;99.90;;;;;;5093444;28;20040;-84
2021/08/12 07:49:14;;;;;;;18.67;14.10;;;18.40;99.90;;;;;;5060031;28;20067;-83
2021/08/12 07:51:40;;;;;;;24.42;13.18;;;18.50;99.90;;;;;;5084743;28;20070;-86
2021/08/12 07:54:06;;;;;;;16.55;11.95;;;18.60;99.90;;;;;;5077190;28;20492;-85
2021/08/12 07:56:32;;;;;;;17.77;11.88;;;18.60;99.90;;;;;;5095519;28;20052;-86
2021/08/12 07:58:58;;;;;;;26.02;12.38;;;18.80;99.90;;;;;;5056595;28;20057;-86
2021/08/12 08:01:23;;;;;;;17.13;11.23;;;19.00;99.90;;;;;;5069661;28;20043;-84
2021/08/12 08:03:50;;;;;;;17.75;10.68;;;19.10;99.90;;;;;;5059532;28;20071;-85
2021/08/12 08:06:16;;;;;;;16.40;11.55;;;19.10;99.90;;;;;;5094335;28;20491;-86
2021/08/12 08:08:42;;;;;;;19.75;11.50;;;19.20;99.90;;;;;;5076080;28;20055;-88
2021/08/12 08:11:08;;;;;;;23.80;12.65;;;19.30;99.90;;;;;;5059156;28;20054;-85
2021/08/12 08:13:34;;;;;;;27.75;11.90;;;19.30;99.90;;;;;;5075830;28;20055;-86
2021/08/12 08:16:00;;;;;;;21.38;12.88;;;19.30;99.90;;;;;;5101907;28;20040;-85
2021/08/12 08:18:26;;;;;;;17.20;12.07;;;19.50;99.90;;;;;;5075185;28;20117;-85
2021/08/12 08:20:53;;;;;;;19.08;11.52;;;19.60;99.90;;;;;;5092947;28;20040;-86
2021/08/12 08:23:19;;;;;;;17.40;11.23;;;19.70;99.90;;;;;;5093742;28;20040;-87
2021/08/12 08:25:45;;;;;;;17.98;11.43;;;19.80;99.90;;;;;;5097473;28;20047;-88
2021/08/12 08:28:11;;;;;;;17.88;10.57;;;19.80;99.90;;;;;;5099463;28;20104;-86
2021/08/12 08:30:37;;;;;;;15.63;10.15;;;19.90;99.90;;;;;;5078490;28;20092;-86
2021/08/12 08:33:04;;;;;;;19.15;10.45;;;20.00;99.90;;;;;;5097432;28;20043;-87
2021/08/12 08:35:30;;;;;;;11.73;9.05;;;20.00;99.90;;;;;;5094081;28;20036;-86
2021/08/12 08:37:59;;;;;;;15.25;8.93;;;20.10;99.90;;;;;;5043334;28;20476;-86
2021/08/12 08:40:26;;;;;;;9.30;7.15;;;20.20;99.90;;;;;;5076745;28;20036;-87
2021/08/12 08:42:52;;;;;;;9.40;7.03;;;20.40;99.90;;;;;;5094063;28;20044;-86
2021/08/12 08:45:23;;;;;;;11.77;7.22;;;20.40;99.90;;;;;;5100210;28;20035;-87
2021/08/12 08:47:53;;;;;;;10.82;7.22;;;20.50;99.90;;;;;;5075942;28;20097;-91
2021/08/12 08:50:21;;;;;;;11.18;6.43;;;20.60;99.90;;;;;;5068157;28;20056;-89
2021/08/12 08:52:48;;;;;;;13.05;8.10;;;20.70;99.90;;;;;;5074782;28;20066;-91
2021/08/12 08:55:20;;;;;;;7.05;6.32;;;20.70;99.90;;;;;;5091529;28;20120;-88
2021/08/12 08:57:50;;;;;;;9.80;6.28;;;20.80;99.90;;;;;;5073915;28;20052;-92
2021/08/12 09:00:17;;;;;;;16.52;6.93;;;20.80;99.90;;;;;;5093226;28;20040;-86
2021/08/12 09:02:47;;;;;;;10.93;6.88;;;20.90;99.90;;;;;;5093919;28;20055;-88
2021/08/12 09:05:15;;;;;;;9.55;5.57;;;21.00;99.90;;;;;;5094089;28;20051;-90
2021/08/12 09:07:42;;;;;;;17.92;6.65;;;21.00;99.90;;;;;;5074652;28;20044;-84
2021/08/12 09:10:10;;;;;;;8.32;6.22;;;21.10;99.90;;;;;;5087436;28;20100;-87
2021/08/12 09:12:36;;;;;;;8.15;5.97;;;21.20;99.90;;;;;;5073868;28;20044;-87
2021/08/12 09:15:11;;;;;;;7.90;5.68;;;21.30;99.90;;;;;;5070851;28;20054;-84
2021/08/12 09:17:37;;;;;;;9.00;6.18;;;21.40;99.90;;;;;;5071928;28;20047;-86
2021/08/12 09:20:15;;;;;;;9.48;6.05;;;21.40;99.90;;;;;;5071007;28;20481;-86
2021/08/12 09:22:48;;;;;;;7.43;5.40;;;21.40;99.90;;;;;;5082826;28;20046;-88
2021/08/12 09:25:15;;;;;;;11.23;5.43;;;21.40;99.90;;;;;;5071427;28;20036;-84
2021/08/12 09:27:41;;;;;;;11.73;5.15;;;21.50;99.90;;;;;;5071278;28;20067;-85
2021/08/12 09:30:16;;;;;;;8.15;5.53;;;21.50;99.90;;;;;;5072132;28;20456;-89
2021/08/12 09:32:49;;;;;;;12.85;6.30;;;21.60;99.90;;;;;;5089385;28;20071;-89
2021/08/12 09:35:26;;;;;;;10.75;6.57;;;21.60;99.90;;;;;;5090372;28;20043;-89
2021/08/12 09:37:52;;;;;;;13.82;6.55;;;21.70;99.90;;;;;;5073645;28;20209;-89
2021/08/12 09:40:26;;;;;;;12.45;7.40;;;21.80;99.90;;;;;;5089200;28;20066;-85
2021/08/12 09:42:58;;;;;;;11.65;7.30;;;21.90;99.90;;;;;;5072150;28;20122;-89
2021/08/12 09:45:25;;;;;;;10.32;7.30;;;21.90;99.90;;;;;;5093971;28;20043;-86
2021/08/12 09:47:52;;;;;;;19.52;7.45;;;21.90;99.90;;;;;;5071495;28;20051;-89
2021/08/12 09:50:35;;;;;;;8.70;6.72;;;22.00;99.90;;;;;;5063727;28;20054;-86
2021/08/12 09:53:02;;;;;;;13.52;7.25;;;22.10;99.90;;;;;;5066578;28;20479;-85
2021/08/12 09:55:28;;;;;;;12.15;7.70;;;22.10;99.90;;;;;;5071640;28;20475;-86
2021/08/12 09:58:06;;;;;;;17.23;6.75;;;22.20;99.90;;;;;;5041471;28;20048;-87
2021/08/12 10:00:42;;;;;;;10.00;6.72;;;22.20;99.90;;;;;;5061918;28;20039;-85
2021/08/12 10:03:36;;;;;;;10.82;6.95;;;22.20;99.90;;;;;;5076910;28;20476;-85
2021/08/12 10:06:03;;;;;;;12.60;5.97;;;22.30;99.90;;;;;;5075866;28;20056;-85
2021/08/12 10:08:29;;;;;;;9.77;6.47;;;22.40;99.90;;;;;;5071302;28;20031;-84
2021/08/12 10:10:57;;;;;;;12.40;6.60;;;22.50;99.90;;;;;;5054118;28;20419;-89
2021/08/12 10:13:22;;;;;;;12.50;6.05;;;22.60;99.90;;;;;;5071400;28;20184;-84
2021/08/12 10:15:49;;;;;;;8.52;6.13;;;22.60;99.90;;;;;;5067999;28;20471;-86
2021/08/12 10:18:19;;;;;;;8.35;5.35;;;22.70;99.90;;;;;;5050692;28;20033;-85
2021/08/12 10:20:46;;;;;;;;;;;22.70;99.90;;;;;;5070313;28;20048;-86
2021/08/12 10:23:12;;;;;;;;;;;22.80;99.90;;;;;;5070193;28;19927;-86
2021/08/12 10:25:39;;;;;;;;;;;22.80;99.90;;;;;;5071449;28;19920;-85
2021/08/12 10:28:06;;;;;;;;;;;22.90;99.90;;;;;;5070423;28;19924;-85
2021/08/12 10:30:32;;;;;;;;;;;22.90;99.90;;;;;;5075020;28;19920;-85
2021/08/12 10:32:58;;;;;;;;;;;23.00;99.90;;;;;;5093220;28;19920;-88
2021/08/12 10:35:26;;;;;;;;;;;23.10;99.90;;;;;;5093203;28;19935;-85
2021/08/12 10:37:54;;;;;;;;;;;23.20;99.90;;;;;;5075684;28;19924;-87
2021/08/12 10:40:27;;;;;;;;;;;23.30;99.90;;;;;;5093158;28;19931;-87
2021/08/12 10:42:54;;;;;;;;;;;23.30;99.90;;;;;;5093853;28;19920;-84
2021/08/12 10:45:21;;;;;;;;;;;23.40;99.90;;;;;;5091913;28;19973;-86
2021/08/12 10:47:54;;;;;;;;;;;23.40;99.90;;;;;;5072281;28;19927;-85
2021/08/12 10:50:22;;;;;;;;;;;23.50;99.90;;;;;;5090111;28;20527;-85
2021/08/12 10:53:36;;;;;;;;;;;23.50;99.90;;;;;;5075760;28;20009;-86
2021/08/12 10:56:03;;;;;;;;;;;23.50;99.90;;;;;;5079569;28;19963;-84
2021/08/12 10:58:33;;;;;;;;;;;23.60;99.90;;;;;;5074884;28;19961;-85
2021/08/12 11:00:59;;;;;;;;;;;23.70;99.90;;;;;;5092790;28;19920;-89
2021/08/12 11:03:31;;;;;;;;;;;23.80;99.90;;;;;;5063964;28;19958;-85
2021/08/12 11:06:06;;;;;;;;;;;23.70;99.90;;;;;;5093209;28;19920;-85
2021/08/12 11:11:25;;;;;;;;;;;23.90;99.90;;;;;;5078944;28;19924;-87
2021/08/12 11:14:10;;;;;;;;;;;24.00;99.90;;;;;;5093496;28;19926;-84
2021/08/12 11:16:42;;;;;;;;;;;24.00;99.90;;;;;;5069507;28;19977;-86
2021/08/12 11:19:08;;;;;;;;;;;24.10;99.90;;;;;;5091120;28;19926;-86
2021/08/12 11:21:35;;;;;;;;;;;24.20;99.90;;;;;;5073615;28;19920;-85
2021/08/12 11:24:20;;;;;;;;;;;24.30;99.90;;;;;;5093310;28;19924;-88
2021/08/12 11:26:47;;;;;;;;;;;24.30;99.90;;;;;;5026502;28;20022;-85
2021/08/12 11:29:28;;;;;;;;;;;24.50;99.90;;;;;;5092139;28;19932;-86
2021/08/12 11:32:03;;;;;;;;;;;24.60;99.90;;;;;;5091273;28;20015;-87
2021/08/12 11:34:36;;;;;;;;;;;24.60;99.60;;;;;;5070959;28;19920;-85
2021/08/12 11:37:06;;;;;;;;;;;24.70;99.80;;;;;;5065372;28;19920;-87
2021/08/12 11:39:32;;;;;;;;;;;24.80;99.90;;;;;;5071780;28;19994;-87
2021/08/12 11:41:59;;;;;;;;;;;24.90;99.90;;;;;;5069843;28;19920;-86
2021/08/12 11:44:26;;;;;;;;;;;24.90;97.60;;;;;;5057090;28;19916;-85
2021/08/12 11:46:52;;;;;;;;;;;24.90;98.50;;;;;;5085369;28;19924;-86
2021/08/12 11:49:18;;;;;;;;;;;25.00;99.10;;;;;;5090155;28;20382;-85
2021/08/12 11:51:45;;;;;;;;;;;25.20;96.90;;;;;;5086900;28;19955;-85
2021/08/12 11:54:11;;;;;;;;;;;25.30;98.20;;;;;;5089170;28;19920;-85
2021/08/12 11:56:38;;;;;;;;;;;25.40;99.20;;;;;;5073769;28;19920;-85
2021/08/12 11:59:04;;;;;;;;;;;25.40;97.00;;;;;;5057067;28;20395;-86
2021/08/12 12:01:31;;;;;;;;;;;25.60;98.30;;;;;;5085544;28;19920;-85
2021/08/12 12:03:59;;;;;;;;;;;25.70;96.40;;;;;;5089624;28;19924;-85
2021/08/12 12:06:31;;;;;;;;;;;26.00;96.40;;;;;;5071770;28;19920;-85
2021/08/12 12:08:57;;;;;;;;;;;26.20;96.60;;;;;;5090494;28;19920;-85
2021/08/12 12:11:23;;;;;;;;;;;26.50;96.40;;;;;;5072836;28;20029;-85
2021/08/12 12:13:48;;;;;;;;;;;26.60;94.90;;;;;;5073785;28;19949;-85
2021/08/12 12:16:14;;;;;;;;;;;26.70;95.10;;;;;;5090716;28;19924;-84
2021/08/12 12:18:41;;;;;;;;;;;27.00;94.50;;;;;;5091774;28;20384;-87
2021/08/12 12:21:14;;;;;;;;;;;27.20;95.40;;;;;;5073629;28;19920;-89
2021/08/12 12:23:42;;;;;;;;;;;27.50;95.00;;;;;;5092559;28;19931;-85
2021/08/12 12:26:16;;;;;;;;;;;27.60;93.50;;;;;;5091141;28;20054;-89
2021/08/12 12:28:42;;;;;;;;;;;27.90;92.70;;;;;;5091634;28;19924;-85
2021/08/12 12:31:14;;;;;;;;;;;27.70;92.70;;;;;;5084927;28;20337;-89
2021/08/12 12:33:40;;;;;;;;;;;27.80;92.10;;;;;;5073529;28;19963;-85
2021/08/12 12:36:06;;;;;;;;;;;28.00;93.80;;;;;;5073258;28;19955;-85
2021/08/12 12:38:32;;;;;;;;;;;27.80;91.70;;;;;;5056155;28;19920;-87
2021/08/12 12:41:03;;;;;;;;;;;27.70;91.80;;;;;;5083107;28;20420;-85
2021/08/12 12:43:29;;;;;;;;;;;27.80;92.30;;;;;;5071762;28;19989;-85
2021/08/12 12:45:55;;;;;;;;;;;28.20;92.00;;;;;;5073000;28;19942;-84
2021/08/12 12:48:31;;;;;;;;;;;28.60;91.30;;;;;;5071454;28;20395;-85
2021/08/12 12:50:58;;;;;;;;;;;28.90;91.90;;;;;;5072373;28;19958;-85
2021/08/12 12:53:28;;;;;;;;;;;29.00;89.20;;;;;;5089700;28;19931;-85
2021/08/12 12:55:54;;;;;;;;;;;28.90;90.30;;;;;;5073669;28;20400;-85
2021/08/12 12:58:20;;;;;;;;;;;29.00;90.20;;;;;;5068756;28;19963;-87